Time;durP1;ratioP1;P1;durP2;ratioP2;P2;SDS_P1;SDS_P2;PMS_P1;PMS_P2;Temp;Humidity;BMP_temperature;BMP_pressure;BME280_temperature;BME280_humidity;BME280_pressure;Samples;Min_cycle;Max_cycle;Signal;HPM_P1;HPM_P2
2021/10/15 00:00:48;;;;;;;18.92;14.20;;;;;;;;;;4127668;28;20041;-77
2021/10/15 00:02:49;;;;;;;17.92;14.10;;;;;;;;;;4096846;28;20089;-76
2021/10/15 00:04:50;;;;;;;20.80;14.45;;;;;;;;;;4128258;28;20027;-77
2021/10/15 00:06:51;;;;;;;18.90;14.48;;;;;;;;;;4114695;28;20094;-77
2021/10/15 00:08:52;;;;;;;19.80;14.27;;;;;;;;;;4113147;28;20564;-78
2021/10/15 00:10:53;;;;;;;16.77;14.25;;;;;;;;;;4114480;28;20469;-77
2021/10/15 00:12:55;;;;;;;21.10;14.23;;;;;;;;;;4096006;28;20520;-76
2021/10/15 00:14:56;;;;;;;16.67;13.60;;;;;;;;;;4128072;28;20101;-78
2021/10/15 00:16:57;;;;;;;16.08;12.60;;;;;;;;;;4096330;28;20028;-77
2021/10/15 00:18:58;;;;;;;20.08;12.95;;;;;;;;;;4112771;28;20045;-76
2021/10/15 00:21:00;;;;;;;17.30;12.65;;;;;;;;;;4112003;28;20450;-77
2021/10/15 00:23:01;;;;;;;18.40;13.10;;;;;;;;;;4110788;28;20458;-77
2021/10/15 00:25:03;;;;;;;17.00;13.50;;;;;;;;;;4098385;28;21933;-76
2021/10/15 00:27:04;;;;;;;16.23;13.07;;;;;;;;;;4124230;28;20133;-77
2021/10/15 00:29:08;;;;;;;17.77;13.57;;;;;;;;;;4113212;28;20576;-76
2021/10/15 00:31:09;;;;;;;16.10;12.68;;;;;;;;;;4108043;28;20031;-77
2021/10/15 00:33:10;;;;;;;15.68;13.32;;;;;;;;;;4116633;28;20034;-78
2021/10/15 00:35:12;;;;;;;18.77;14.23;;;;;;;;;;4114794;28;20035;-77
2021/10/15 00:37:13;;;;;;;17.90;14.38;;;;;;;;;;4114383;28;20066;-77
2021/10/15 00:39:14;;;;;;;18.90;13.52;;;;;;;;;;4118551;28;20495;-77
2021/10/15 00:41:17;;;;;;;17.33;13.82;;;;;;;;;;4118964;28;20780;-76
2021/10/15 00:43:18;;;;;;;15.93;12.75;;;;;;;;;;4102774;28;20079;-77
2021/10/15 00:45:19;;;;;;;17.75;12.95;;;;;;;;;;4105433;28;20086;-77
2021/10/15 00:47:20;;;;;;;17.80;13.60;;;;;;;;;;4112465;28;20444;-77
2021/10/15 00:49:21;;;;;;;17.00;14.52;;;;;;;;;;4126114;28;20042;-77
2021/10/15 00:51:23;;;;;;;19.48;14.48;;;;;;;;;;4127253;28;20557;-77
2021/10/15 00:53:24;;;;;;;18.10;14.20;;;;;;;;;;4115115;28;20054;-77
2021/10/15 00:55:26;;;;;;;15.50;13.75;;;;;;;;;;4094912;28;20425;-76
2021/10/15 00:57:27;;;;;;;20.65;12.82;;;;;;;;;;4113822;28;20122;-76
2021/10/15 00:59:28;;;;;;;17.48;13.75;;;;;;;;;;4111256;28;20034;-78
2021/10/15 01:01:30;;;;;;;17.23;12.30;;;;;;;;;;4112344;28;20098;-77
2021/10/15 01:03:31;;;;;;;18.88;14.40;;;;;;;;;;4112332;28;20042;-78
2021/10/15 01:05:33;;;;;;;20.00;13.90;;;;;;;;;;4112611;28;20038;-77
2021/10/15 01:07:34;;;;;;;18.83;13.95;;;;;;;;;;4124666;28;20034;-76
2021/10/15 01:09:35;;;;;;;17.13;13.73;;;;;;;;;;4114534;28;20038;-77
2021/10/15 01:11:37;;;;;;;17.63;12.70;;;;;;;;;;4111120;28;20043;-76
2021/10/15 01:13:39;;;;;;;19.27;14.45;;;;;;;;;;4111294;28;20043;-76
2021/10/15 01:15:40;;;;;;;22.00;15.05;;;;;;;;;;4112350;28;20603;-76
2021/10/15 01:17:41;;;;;;;16.08;13.68;;;;;;;;;;4109425;28;20437;-77
2021/10/15 01:19:42;;;;;;;17.08;13.32;;;;;;;;;;4111372;28;20066;-76
2021/10/15 01:21:43;;;;;;;20.55;14.85;;;;;;;;;;4107876;28;20043;-77
2021/10/15 01:23:44;;;;;;;28.33;15.45;;;;;;;;;;4102548;28;20085;-76
2021/10/15 01:25:45;;;;;;;19.58;14.45;;;;;;;;;;4125261;28;20040;-77
2021/10/15 01:27:46;;;;;;;19.05;13.57;;;;;;;;;;4113444;28;20490;-76
2021/10/15 01:29:48;;;;;;;18.02;14.48;;;;;;;;;;4102957;28;20119;-77
2021/10/15 01:31:49;;;;;;;18.58;14.07;;;;;;;;;;4122191;28;20046;-76
2021/10/15 01:33:51;;;;;;;19.52;13.90;;;;;;;;;;4105054;28;20047;-76
2021/10/15 01:35:52;;;;;;;20.52;14.93;;;;;;;;;;4122230;28;20042;-77
2021/10/15 01:37:54;;;;;;;19.85;14.38;;;;;;;;;;4109242;28;20038;-77
2021/10/15 01:39:55;;;;;;;19.15;15.18;;;;;;;;;;4116473;28;20414;-77
2021/10/15 01:41:56;;;;;;;17.83;12.82;;;;;;;;;;4131629;28;20077;-77
2021/10/15 01:43:57;;;;;;;17.60;14.45;;;;;;;;;;4131629;28;20042;-77
2021/10/15 01:45:58;;;;;;;18.95;14.93;;;;;;;;;;4113968;28;20050;-78
2021/10/15 01:48:00;;;;;;;19.05;11.88;;;;;;;;;;4113626;28;20051;-77
2021/10/15 01:50:01;;;;;;;23.77;15.43;;;;;;;;;;4099573;28;20229;-76
2021/10/15 01:52:02;;;;;;;21.95;15.90;;;;;;;;;;4113838;28;20122;-76
2021/10/15 01:54:05;;;;;;;17.35;15.18;;;;;;;;;;4113475;28;20125;-77
2021/10/15 01:56:06;;;;;;;18.50;14.10;;;;;;;;;;4116077;28;20512;-77
2021/10/15 01:58:07;;;;;;;19.77;15.65;;;;;;;;;;4114994;28;20035;-76
2021/10/15 02:00:10;;;;;;;19.05;15.20;;;;;;;;;;4113820;28;20564;-77
2021/10/15 02:02:11;;;;;;;19.58;16.13;;;;;;;;;;4114908;28;20047;-77
2021/10/15 02:04:13;;;;;;;18.70;15.25;;;;;;;;;;4114974;28;20540;-77
2021/10/15 02:06:14;;;;;;;22.25;14.07;;;;;;;;;;4130643;28;20587;-77
2021/10/15 02:08:15;;;;;;;18.73;14.77;;;;;;;;;;4112783;28;20406;-77
2021/10/15 02:10:17;;;;;;;17.30;14.20;;;;;;;;;;4118317;28;20560;-77
2021/10/15 02:12:19;;;;;;;18.50;15.68;;;;;;;;;;4127377;28;20039;-77
2021/10/15 02:14:20;;;;;;;16.00;14.15;;;;;;;;;;4119346;28;20478;-77
2021/10/15 02:16:21;;;;;;;18.88;15.95;;;;;;;;;;4112037;28;20456;-77
2021/10/15 02:18:23;;;;;;;26.02;17.95;;;;;;;;;;4115358;28;20046;-77
2021/10/15 02:20:24;;;;;;;20.10;15.52;;;;;;;;;;4125837;28;20508;-77
2021/10/15 02:22:25;;;;;;;19.40;16.27;;;;;;;;;;4114706;28;20050;-76
2021/10/15 02:24:27;;;;;;;18.60;16.65;;;;;;;;;;4123578;28;20088;-77
2021/10/15 02:26:28;;;;;;;23.30;16.55;;;;;;;;;;4116228;28;20042;-77
2021/10/15 02:28:29;;;;;;;21.88;16.45;;;;;;;;;;4127144;28;20030;-77
2021/10/15 02:30:30;;;;;;;21.80;16.45;;;;;;;;;;4115779;28;20046;-77
2021/10/15 02:32:31;;;;;;;20.15;16.83;;;;;;;;;;4117617;28;20122;-77
2021/10/15 02:34:32;;;;;;;19.67;15.32;;;;;;;;;;4106514;28;20045;-77
2021/10/15 02:36:34;;;;;;;23.77;16.02;;;;;;;;;;4131213;28;20390;-77
2021/10/15 02:38:35;;;;;;;21.00;16.73;;;;;;;;;;4098255;28;20031;-77
2021/10/15 02:40:36;;;;;;;22.65;16.08;;;;;;;;;;4111964;28;20027;-77
2021/10/15 02:42:38;;;;;;;19.17;17.15;;;;;;;;;;4108657;28;20445;-77
2021/10/15 02:44:39;;;;;;;19.90;15.23;;;;;;;;;;4114318;28;20043;-77
2021/10/15 02:46:42;;;;;;;21.90;16.83;;;;;;;;;;4114670;28;20034;-77
2021/10/15 02:48:43;;;;;;;24.05;17.00;;;;;;;;;;4114453;28;20409;-77
2021/10/15 02:50:44;;;;;;;22.88;17.25;;;;;;;;;;4082697;28;20044;-77
2021/10/15 02:52:46;;;;;;;17.90;16.00;;;;;;;;;;4089796;29;20035;-77
2021/10/15 02:54:47;;;;;;;21.17;17.10;;;;;;;;;;4114301;28;20475;-77
2021/10/15 02:56:48;;;;;;;20.45;15.57;;;;;;;;;;4112659;28;20038;-77
2021/10/15 02:58:50;;;;;;;23.35;17.73;;;;;;;;;;4110414;28;20077;-77
2021/10/15 03:00:51;;;;;;;17.42;13.55;;;;;;;;;;4116418;28;20065;-75
2021/10/15 03:02:55;;;;;;;22.25;16.65;;;;;;;;;;4110567;28;20390;-76
2021/10/15 03:04:56;;;;;;;22.85;17.10;;;;;;;;;;4121119;28;20054;-78
2021/10/15 03:06:58;;;;;;;22.33;16.17;;;;;;;;;;4124361;28;20493;-78
2021/10/15 03:08:59;;;;;;;26.50;16.80;;;;;;;;;;4120050;28;20038;-76
2021/10/15 03:11:00;;;;;;;19.67;16.13;;;;;;;;;;4119745;28;20611;-78
2021/10/15 03:13:01;;;;;;;24.73;17.33;;;;;;;;;;4122241;28;20046;-77
2021/10/15 03:15:03;;;;;;;21.75;16.88;;;;;;;;;;4111751;28;20042;-77
2021/10/15 03:17:04;;;;;;;23.30;16.30;;;;;;;;;;4115393;28;20066;-77
2021/10/15 03:19:05;;;;;;;23.70;16.80;;;;;;;;;;4111368;28;20126;-77
2021/10/15 03:21:06;;;;;;;22.63;17.27;;;;;;;;;;4113707;28;20042;-76
2021/10/15 03:23:07;;;;;;;22.02;15.50;;;;;;;;;;4101739;28;20059;-77
2021/10/15 03:25:09;;;;;;;23.73;16.75;;;;;;;;;;4125969;28;20039;-78
2021/10/15 03:27:10;;;;;;;26.88;16.60;;;;;;;;;;4141792;28;20050;-75
2021/10/15 03:29:11;;;;;;;19.55;16.13;;;;;;;;;;4101253;28;20055;-77
2021/10/15 03:31:12;;;;;;;22.92;17.23;;;;;;;;;;4114568;28;20498;-78
2021/10/15 03:33:13;;;;;;;22.05;15.48;;;;;;;;;;4114135;28;20085;-77
2021/10/15 03:35:14;;;;;;;22.42;16.65;;;;;;;;;;4113625;28;20573;-77
2021/10/15 03:37:16;;;;;;;23.90;15.77;;;;;;;;;;4125146;28;20402;-77
2021/10/15 03:39:17;;;;;;;20.05;17.70;;;;;;;;;;4113943;28;20039;-77
2021/10/15 03:41:18;;;;;;;23.45;16.88;;;;;;;;;;4116880;28;20514;-76
2021/10/15 03:43:19;;;;;;;22.63;16.58;;;;;;;;;;4127555;28;20116;-77
2021/10/15 03:45:20;;;;;;;20.70;16.90;;;;;;;;;;4098529;28;20095;-77
2021/10/15 03:47:21;;;;;;;21.00;16.85;;;;;;;;;;4126135;28;20046;-77
2021/10/15 03:49:22;;;;;;;18.50;16.38;;;;;;;;;;4115526;28;20745;-77
2021/10/15 03:51:24;;;;;;;20.45;15.68;;;;;;;;;;4097204;28;20047;-76
2021/10/15 03:53:25;;;;;;;21.02;17.08;;;;;;;;;;4124694;28;20110;-77
2021/10/15 03:55:26;;;;;;;22.92;15.50;;;;;;;;;;4105270;28;20749;-76
2021/10/15 03:57:28;;;;;;;24.08;14.70;;;;;;;;;;4106560;28;20043;-77
2021/10/15 03:59:29;;;;;;;24.20;14.77;;;;;;;;;;4105664;28;20038;-77
2021/10/15 04:01:31;;;;;;;21.20;15.77;;;;;;;;;;4113166;28;20517;-77
2021/10/15 04:03:33;;;;;;;21.15;15.93;;;;;;;;;;4097546;28;20062;-77
2021/10/15 04:05:34;;;;;;;20.92;15.90;;;;;;;;;;4103898;28;20039;-76
2021/10/15 04:07:35;;;;;;;25.02;17.63;;;;;;;;;;4121122;28;20112;-77
2021/10/15 04:09:36;;;;;;;17.90;15.13;;;;;;;;;;4114363;28;20337;-77
2021/10/15 04:11:38;;;;;;;23.83;16.65;;;;;;;;;;4112986;28;20066;-77
2021/10/15 04:13:39;;;;;;;19.73;16.65;;;;;;;;;;4112625;28;20701;-77
2021/10/15 04:15:40;;;;;;;21.50;15.93;;;;;;;;;;4114478;28;20372;-77
2021/10/15 04:17:41;;;;;;;20.60;15.75;;;;;;;;;;4115421;28;20426;-78
2021/10/15 04:19:42;;;;;;;23.98;17.83;;;;;;;;;;4114929;28;20045;-79
2021/10/15 04:21:44;;;;;;;21.58;16.88;;;;;;;;;;4097170;28;20082;-78
2021/10/15 04:23:45;;;;;;;20.95;16.30;;;;;;;;;;4123638;28;20042;-77
2021/10/15 04:25:46;;;;;;;21.50;16.10;;;;;;;;;;4096891;28;20042;-77
2021/10/15 04:27:47;;;;;;;21.50;17.25;;;;;;;;;;4114994;28;20046;-77
2021/10/15 04:29:49;;;;;;;25.80;17.45;;;;;;;;;;4112656;28;20031;-76
2021/10/15 04:31:50;;;;;;;19.30;16.02;;;;;;;;;;4112877;28;20041;-78
2021/10/15 04:33:51;;;;;;;24.25;18.85;;;;;;;;;;4113213;28;20473;-78
2021/10/15 04:35:52;;;;;;;25.15;17.67;;;;;;;;;;4114496;28;20035;-79
2021/10/15 04:37:53;;;;;;;18.58;13.95;;;;;;;;;;4115642;28;20450;-78
2021/10/15 04:39:55;;;;;;;23.77;16.30;;;;;;;;;;4111966;28;20549;-77
2021/10/15 04:41:56;;;;;;;21.13;15.52;;;;;;;;;;4115645;28;20038;-77
2021/10/15 04:43:57;;;;;;;25.88;18.38;;;;;;;;;;4101436;28;20047;-78
2021/10/15 04:45:58;;;;;;;21.65;17.70;;;;;;;;;;4096945;28;20043;-77
2021/10/15 04:48:00;;;;;;;21.55;17.05;;;;;;;;;;4111023;28;20039;-77
2021/10/15 04:50:01;;;;;;;25.27;17.90;;;;;;;;;;4127845;28;20105;-76
2021/10/15 04:52:03;;;;;;;23.38;17.52;;;;;;;;;;4111993;28;20042;-75
2021/10/15 04:54:04;;;;;;;20.55;16.48;;;;;;;;;;4113900;28;20054;-76
2021/10/15 04:56:05;;;;;;;21.02;17.60;;;;;;;;;;4112327;28;20338;-77
2021/10/15 04:58:06;;;;;;;25.77;16.63;;;;;;;;;;4096505;28;20106;-77
2021/10/15 05:00:08;;;;;;;23.65;17.60;;;;;;;;;;4130603;28;20041;-78
2021/10/15 05:02:10;;;;;;;23.98;16.88;;;;;;;;;;4133572;28;20041;-77
2021/10/15 05:04:13;;;;;;;24.23;17.75;;;;;;;;;;4114928;28;20047;-77
2021/10/15 05:06:14;;;;;;;;;;;;;;;;;;4100696;28;20511;-76
2021/10/15 05:08:16;;;;;;;24.38;16.65;;;;;;;;;;4113725;28;19985;-77
2021/10/15 05:10:20;;;;;;;25.55;16.80;;;;;;;;;;4129203;28;20035;-77
2021/10/15 05:12:22;;;;;;;19.75;17.20;;;;;;;;;;4130562;28;22341;-77
2021/10/15 05:14:23;;;;;;;23.40;17.75;;;;;;;;;;4110908;28;20047;-78
2021/10/15 05:16:24;;;;;;;29.05;17.92;;;;;;;;;;4129460;28;20034;-77
2021/10/15 05:18:25;;;;;;;25.95;17.73;;;;;;;;;;4109968;28;20393;-77
2021/10/15 05:20:27;;;;;;;23.70;18.70;;;;;;;;;;4113226;28;20335;-77
2021/10/15 05:22:28;;;;;;;27.95;18.50;;;;;;;;;;4113626;28;20046;-77
2021/10/15 05:24:29;;;;;;;22.80;19.50;;;;;;;;;;4127905;28;20034;-77
2021/10/15 05:26:30;;;;;;;27.25;18.80;;;;;;;;;;4126170;28;20125;-77
2021/10/15 05:28:32;;;;;;;29.02;19.40;;;;;;;;;;4128304;28;20422;-77
2021/10/15 05:30:33;;;;;;;32.13;20.80;;;;;;;;;;4127737;28;20034;-78
2021/10/15 05:32:35;;;;;;;25.30;17.50;;;;;;;;;;4114679;28;20043;-77
2021/10/15 05:34:36;;;;;;;21.88;16.65;;;;;;;;;;4126388;28;20034;-77
2021/10/15 05:36:37;;;;;;;30.38;19.20;;;;;;;;;;4113721;28;20047;-77
2021/10/15 05:38:39;;;;;;;32.60;20.40;;;;;;;;;;4129381;28;20046;-78
2021/10/15 05:40:40;;;;;;;24.52;18.17;;;;;;;;;;4123000;28;20068;-77
2021/10/15 05:42:46;;;;;;;29.05;20.58;;;;;;;;;;4127915;28;20038;-78
2021/10/15 05:44:47;;;;;;;27.98;20.45;;;;;;;;;;4113039;28;20102;-78
2021/10/15 05:46:48;;;;;;;22.63;16.45;;;;;;;;;;4127878;28;20058;-78
2021/10/15 05:48:50;;;;;;;26.23;19.58;;;;;;;;;;4117014;28;20121;-78
2021/10/15 05:50:51;;;;;;;29.05;17.80;;;;;;;;;;4099157;28;20094;-78
2021/10/15 05:52:52;;;;;;;26.15;19.35;;;;;;;;;;4111230;28;20038;-78
2021/10/15 05:55:00;;;;;;;30.60;19.27;;;;;;;;;;4115342;28;20035;-78
2021/10/15 05:57:14;;;;;;;22.98;17.17;;;;;;;;;;4125653;28;20066;-78
2021/10/15 05:59:15;;;;;;;25.67;17.70;;;;;;;;;;4113969;28;20070;-78
2021/10/15 06:01:26;;;;;;;30.00;20.25;;;;;;;;;;4124745;28;20540;-78
2021/10/15 06:03:27;;;;;;;21.73;17.70;;;;;;;;;;4114024;28;20041;-78
2021/10/15 06:14:12;;;;;;;24.08;18.13;;;;;;;;;;4113416;28;20045;-78
2021/10/15 06:14:51;;;;;;;24.95;18.15;;;;;;;;;;4126011;28;20047;-78
2021/10/15 06:16:54;;;;;;;33.22;18.33;;;;;;;;;;4098541;28;20047;-76
2021/10/15 06:19:06;;;;;;;24.50;19.02;;;;;;;;;;4115297;28;20043;-77
2021/10/15 06:21:07;;;;;;;33.53;19.48;;;;;;;;;;4126181;28;20042;-76
2021/10/15 06:23:10;;;;;;;32.30;22.73;;;;;;;;;;4114919;28;20064;-78
2021/10/15 06:25:11;;;;;;;33.05;21.67;;;;;;;;;;4107442;28;20063;-79
2021/10/15 06:27:12;;;;;;;34.67;23.67;;;;;;;;;;4111388;28;20128;-77
2021/10/15 06:29:13;;;;;;;42.75;25.67;;;;;;;;;;4103566;28;20051;-77
2021/10/15 06:31:14;;;;;;;35.25;19.73;;;;;;;;;;4128196;28;20046;-76
2021/10/15 06:33:16;;;;;;;34.28;21.55;;;;;;;;;;4112242;28;20062;-78
2021/10/15 06:35:17;;;;;;;43.30;25.05;;;;;;;;;;4120481;28;20044;-77
2021/10/15 06:37:18;;;;;;;32.70;21.02;;;;;;;;;;4111156;28;20536;-73
2021/10/15 06:39:19;;;;;;;36.92;23.10;;;;;;;;;;4111064;28;20040;-76
2021/10/15 06:41:20;;;;;;;38.25;21.52;;;;;;;;;;4114250;28;20147;-73
2021/10/15 06:43:24;;;;;;;34.78;20.83;;;;;;;;;;4112181;28;20138;-76
2021/10/15 06:45:25;;;;;;;35.97;19.02;;;;;;;;;;4112208;28;20712;-73
2021/10/15 06:47:28;;;;;;;12.10;7.88;;;;;;;;;;4097903;28;20138;-73
2021/10/15 06:49:29;;;;;;;10.90;6.68;;;;;;;;;;4113812;28;20421;-75
2021/10/15 06:51:30;;;;;;;5.88;3.65;;;;;;;;;;4111742;28;20038;-74
2021/10/15 06:53:31;;;;;;;6.97;5.30;;;;;;;;;;4112575;28;20485;-76
2021/10/15 06:55:32;;;;;;;6.32;4.43;;;;;;;;;;4129175;28;20034;-75
2021/10/15 06:57:33;;;;;;;6.60;4.40;;;;;;;;;;4129400;28;20117;-76
2021/10/15 06:59:35;;;;;;;4.82;3.05;;;;;;;;;;4117072;28;20486;-77
2021/10/15 07:01:36;;;;;;;3.47;2.22;;;;;;;;;;4123724;28;20063;-77
2021/10/15 07:03:37;;;;;;;1.92;1.83;;;;;;;;;;4114493;28;20039;-78
2021/10/15 07:05:38;;;;;;;1.83;1.73;;;;;;;;;;4100478;28;20564;-75
2021/10/15 07:07:40;;;;;;;1.67;1.58;;;;;;;;;;4112786;28;20042;-77
2021/10/15 07:09:41;;;;;;;2.50;1.75;;;;;;;;;;4128707;28;20046;-78
2021/10/15 07:11:44;;;;;;;5.85;1.70;;;;;;;;;;4126157;28;20042;-78
2021/10/15 07:13:45;;;;;;;3.95;1.73;;;;;;;;;;4115367;28;20486;-77
2021/10/15 07:15:47;;;;;;;3.85;1.67;;;;;;;;;;4109183;28;20054;-77
2021/10/15 07:17:48;;;;;;;4.28;1.70;;;;;;;;;;4108382;28;20039;-77
2021/10/15 07:19:49;;;;;;;4.55;2.30;;;;;;;;;;4113206;28;20034;-77
2021/10/15 07:21:50;;;;;;;3.50;1.70;;;;;;;;;;4112795;28;20093;-76
2021/10/15 07:23:54;;;;;;;9.25;2.75;;;;;;;;;;4133310;28;20149;-77
2021/10/15 07:25:56;;;;;;;;;;;;;;;;;;4112906;28;20129;-78
2021/10/15 07:27:57;;;;;;;8.23;2.55;;;;;;;;;;4098141;28;19926;-79
2021/10/15 07:29:58;;;;;;;6.03;2.17;;;;;;;;;;4109816;28;20074;-77
2021/10/15 07:32:00;;;;;;;4.70;1.90;;;;;;;;;;4112958;28;20454;-78
2021/10/15 07:34:02;;;;;;;2.85;1.92;;;;;;;;;;4114754;28;20034;-78
2021/10/15 07:36:03;;;;;;;3.78;1.90;;;;;;;;;;4112830;28;20047;-77
2021/10/15 07:38:04;;;;;;;6.40;1.90;;;;;;;;;;4111541;28;20050;-77
2021/10/15 07:40:06;;;;;;;2.58;1.92;;;;;;;;;;4114547;28;20038;-77
2021/10/15 07:42:08;;;;;;;3.65;2.10;;;;;;;;;;4115079;28;20058;-77
2021/10/15 07:44:09;;;;;;;7.55;2.47;;;;;;;;;;4096504;28;20507;-78
2021/10/15 07:46:11;;;;;;;7.85;2.83;;;;;;;;;;4115389;28;20034;-78
2021/10/15 07:48:12;;;;;;;9.93;2.70;;;;;;;;;;4128035;28;20038;-77
2021/10/15 07:50:13;;;;;;;5.20;2.42;;;;;;;;;;4099037;28;20055;-79
2021/10/15 07:52:14;;;;;;;5.78;2.35;;;;;;;;;;4113633;28;20038;-77
2021/10/15 07:54:16;;;;;;;6.13;2.20;;;11.10;99.90;;;;;;4124314;28;20081;-78
2021/10/15 07:56:16;;;;;;;6.80;2.33;;;11.00;99.90;;;;;;4112641;28;20034;-78
2021/10/15 07:58:17;;;;;;;8.38;2.58;;;11.10;99.90;;;;;;4109719;28;20113;-78
2021/10/15 08:00:19;;;;;;;5.88;2.70;;;11.00;99.90;;;;;;4113170;28;20043;-78
2021/10/15 08:02:20;;;;;;;7.50;2.50;;;11.10;99.90;;;;;;4106987;28;20050;-78
2021/10/15 08:04:20;;;;;;;7.47;2.30;;;11.10;99.90;;;;;;4103884;28;20031;-78
2021/10/15 08:06:22;;;;;;;5.53;2.33;;;11.20;99.90;;;;;;4124199;28;20505;-78
2021/10/15 08:08:22;;;;;;;5.00;2.47;;;11.20;99.90;;;;;;4112994;28;20081;-78
2021/10/15 08:10:23;;;;;;;4.93;2.50;;;11.20;99.90;;;;;;4110865;28;20031;-77
2021/10/15 08:12:24;;;;;;;5.45;2.33;;;11.20;99.90;;;;;;4103514;28;20498;-78
2021/10/15 08:14:25;;;;;;;9.35;2.85;;;11.20;99.90;;;;;;4111620;28;20031;-78
2021/10/15 08:16:26;;;;;;;6.65;2.80;;;11.10;99.90;;;;;;4118627;28;20054;-77
2021/10/15 08:18:27;;;;;;;8.05;2.70;;;11.10;99.90;;;;;;4109261;28;20038;-77
2021/10/15 08:20:27;;;;;;;13.60;2.85;;;11.10;99.90;;;;;;4113638;28;20041;-76
2021/10/15 08:22:29;;;;;;;7.13;2.53;;;11.20;99.90;;;;;;4112101;28;20043;-76
2021/10/15 08:24:30;;;;;;;13.02;3.15;;;11.30;99.90;;;;;;4111900;28;20043;-76
2021/10/15 08:26:31;;;;;;;5.95;2.80;;;11.40;99.90;;;;;;4099541;28;20360;-77
2021/10/15 08:28:35;;;;;;;9.63;3.20;;;11.40;99.90;;;;;;4110705;28;20038;-77
2021/10/15 08:30:36;;;;;;;9.27;3.40;;;11.60;99.90;;;;;;4113341;28;20042;-79
2021/10/15 08:32:37;;;;;;;10.05;3.33;;;11.70;99.90;;;;;;4121852;28;20034;-79
2021/10/15 08:34:38;;;;;;;6.10;2.97;;;11.90;99.90;;;;;;4136012;28;20069;-79
2021/10/15 08:36:39;;;;;;;8.30;2.70;;;12.10;99.90;;;;;;4124253;28;20845;-78
2021/10/15 08:38:40;;;;;;;9.57;3.17;;;12.30;99.90;;;;;;4096038;28;20517;-78
2021/10/15 08:40:41;;;;;;;9.98;3.38;;;12.60;99.90;;;;;;4101948;28;20379;-78
2021/10/15 08:42:49;;;;;;;8.55;3.30;;;12.60;99.90;;;;;;4111722;28;20065;-78
2021/10/15 08:44:50;;;;;;;9.10;3.20;;;12.60;99.90;;;;;;4106885;28;20032;-78
2021/10/15 08:46:51;;;;;;;8.95;3.08;;;12.60;99.90;;;;;;4114740;28;20097;-78
2021/10/15 08:48:52;;;;;;;8.35;3.08;;;12.50;99.90;;;;;;4106386;28;20126;-78
2021/10/15 08:50:53;;;;;;;9.77;3.28;;;12.50;99.90;;;;;;4113954;28;20082;-78
2021/10/15 08:52:55;;;;;;;7.28;2.80;;;12.60;99.90;;;;;;4112937;28;20026;-78
2021/10/15 08:54:56;;;;;;;8.20;2.97;;;12.70;99.90;;;;;;4111439;28;20042;-78
2021/10/15 08:57:00;;;;;;;10.68;3.40;;;12.80;99.90;;;;;;4110850;28;20138;-78
2021/10/15 08:59:05;;;;;;;11.15;3.03;;;12.90;99.90;;;;;;4112048;28;20088;-78
2021/10/15 09:01:06;;;;;;;7.78;3.40;;;12.90;99.90;;;;;;4103663;28;20071;-78
2021/10/15 09:03:15;;;;;;;13.07;3.22;;;12.90;99.90;;;;;;4120159;28;20042;-78
2021/10/15 09:05:16;;;;;;;13.20;3.03;;;12.90;99.90;;;;;;4113506;28;20041;-78
2021/10/15 09:07:22;;;;;;;10.45;3.05;;;12.80;99.90;;;;;;4126430;28;20117;-79
2021/10/15 09:09:28;;;;;;;11.80;3.72;;;12.70;99.90;;;;;;4129044;28;20085;-79
2021/10/15 09:11:35;;;;;;;9.60;2.85;;;12.70;99.90;;;;;;4123964;28;20038;-77
2021/10/15 09:13:36;;;;;;;7.85;3.15;;;12.60;99.90;;;;;;4112392;28;20035;-78
2021/10/15 09:15:38;;;;;;;12.45;3.03;;;12.60;99.90;;;;;;4111077;28;20102;-79
2021/10/15 09:17:51;;;;;;;10.45;3.92;;;12.60;99.90;;;;;;4095472;28;20036;-77
2021/10/15 09:19:58;;;;;;;9.02;3.28;;;12.50;99.90;;;;;;4112780;28;20039;-77
2021/10/15 09:22:16;;;;;;;21.55;3.45;;;12.40;99.90;;;;;;4130825;28;20533;-76
2021/10/15 09:24:36;;;;;;;13.55;3.47;;;12.20;99.90;;;;;;4108087;28;20567;-78
2021/10/15 09:26:37;;;;;;;16.40;3.38;;;12.10;99.90;;;;;;4108092;28;20054;-76
2021/10/15 09:28:44;;;;;;;7.53;3.03;;;12.20;99.90;;;;;;4097600;28;20046;-77
2021/10/15 09:30:49;;;;;;;13.85;3.65;;;12.20;99.90;;;;;;4105900;28;20031;-78
2021/10/15 09:32:57;;;;;;;9.93;3.28;;;12.30;99.90;;;;;;4097461;28;20114;-77
2021/10/15 09:34:59;;;;;;;9.80;4.45;;;12.40;99.90;;;;;;4125753;28;20915;-77
2021/10/15 09:36:59;;;;;;;13.18;3.38;;;12.70;99.90;;;;;;4112934;28;20038;-76
2021/10/15 09:39:25;;;;;;;11.05;3.58;;;13.00;99.90;;;;;;4108797;28;20041;-77
2021/10/15 09:41:40;;;;;;;11.45;3.78;;;13.30;99.90;;;;;;4110627;28;20125;-78
2021/10/15 09:43:42;;;;;;;10.30;3.10;;;13.70;99.90;;;;;;4092034;28;20045;-77
2021/10/15 09:45:47;;;;;;;11.63;3.40;;;14.20;99.90;;;;;;4113116;28;20027;-78
2021/10/15 09:47:50;;;;;;;10.75;3.33;;;14.60;99.90;;;;;;4128215;28;20033;-78
2021/10/15 09:49:59;;;;;;;10.57;3.20;;;14.90;99.90;;;;;;4111545;28;20435;-78
2021/10/15 09:52:00;;;;;;;8.77;3.00;;;15.00;99.90;;;;;;4103367;28;20051;-77
2021/10/15 09:54:08;;;;;;;11.15;3.20;;;15.00;99.90;;;;;;4098363;28;20043;-78
2021/10/15 09:56:09;;;;;;;9.93;3.80;;;14.90;99.90;;;;;;4082612;29;20063;-78
2021/10/15 09:58:20;;;;;;;9.25;3.58;;;14.80;99.90;;;;;;4125297;28;20042;-78
2021/10/15 10:00:31;;;;;;;11.23;2.88;;;15.20;99.90;;;;;;4098388;28;20043;-78
2021/10/15 10:02:34;;;;;;;13.35;3.38;;;15.20;99.90;;;;;;4128019;28;20517;-78
2021/10/15 10:04:35;;;;;;;10.48;3.22;;;15.00;99.90;;;;;;4098912;28;20032;-77
2021/10/15 10:06:36;;;;;;;9.95;3.30;;;14.90;99.90;;;;;;4111933;28;20122;-77
2021/10/15 10:08:38;;;;;;;8.68;2.80;;;15.10;99.90;;;;;;4103536;28;20038;-77
2021/10/15 10:10:40;;;;;;;10.27;2.83;;;15.70;99.90;;;;;;4113211;28;20043;-77
2021/10/15 10:12:45;;;;;;;8.88;3.08;;;16.30;99.90;;;;;;4127493;28;20046;-76
2021/10/15 10:14:47;;;;;;;16.10;3.72;;;16.10;99.90;;;;;;4128164;28;20116;-78
2021/10/15 10:16:51;;;;;;;13.00;4.03;;;16.00;99.90;;;;;;4129847;28;20118;-77
2021/10/15 10:19:01;;;;;;;12.38;3.75;;;16.50;99.90;;;;;;4097852;28;20111;-76
2021/10/15 10:21:25;;;;;;;9.75;4.50;;;17.10;99.90;;;;;;4126553;28;20041;-76
2021/10/15 10:23:43;;;;;;;9.98;3.55;;;17.20;99.90;;;;;;4124580;28;20038;-77
2021/10/15 10:25:45;;;;;;;11.23;3.45;;;17.00;99.90;;;;;;4115625;28;20167;-77
2021/10/15 10:27:45;;;;;;;10.20;2.25;;;16.80;99.90;;;;;;4125308;28;20027;-78
2021/10/15 10:29:52;;;;;;;9.65;2.50;;;17.00;99.90;;;;;;4112806;28;20045;-78
2021/10/15 10:32:14;;;;;;;12.07;2.47;;;17.30;99.90;;;;;;4112550;28;20125;-77
2021/10/15 10:34:27;;;;;;;16.50;3.25;;;17.50;99.90;;;;;;4125792;28;20039;-77
2021/10/15 10:36:31;;;;;;;9.73;2.90;;;17.90;99.90;;;;;;4113408;28;20403;-77
2021/10/15 10:38:32;;;;;;;9.20;2.42;;;18.00;99.90;;;;;;4129423;28;20061;-77
2021/10/15 10:40:33;;;;;;;13.40;3.63;;;18.00;99.90;;;;;;4113443;28;20463;-77
2021/10/15 10:42:52;;;;;;;7.85;2.55;;;17.90;99.90;;;;;;4130017;28;20042;-74
2021/10/15 10:44:55;;;;;;;13.85;3.00;;;17.60;99.90;;;;;;4108683;28;20126;-78
2021/10/15 10:47:15;;;;;;;9.88;3.05;;;17.40;99.90;;;;;;4129109;28;20046;-77
2021/10/15 10:49:17;;;;;;;6.63;2.65;;;16.90;99.90;;;;;;4112735;28;20049;-78
2021/10/15 10:51:30;;;;;;;14.13;3.80;;;16.70;99.90;;;;;;4113704;28;20039;-76
2021/10/15 10:53:31;;;;;;;9.40;2.58;;;17.20;99.90;;;;;;4114414;28;20628;-76
2021/10/15 10:55:39;;;;;;;10.70;3.17;;;18.00;99.90;;;;;;4130238;28;20034;-77
2021/10/15 10:57:41;;;;;;;12.45;3.50;;;18.80;99.90;;;;;;4128069;28;20038;-77
2021/10/15 10:59:44;;;;;;;10.18;2.58;;;19.10;99.90;;;;;;4097357;28;20144;-77
2021/10/15 11:02:02;;;;;;;11.02;3.75;;;19.00;99.90;;;;;;4113544;28;20070;-77
2021/10/15 11:04:27;;;;;;;9.32;2.53;;;18.00;99.90;;;;;;4098499;28;20079;-77
2021/10/15 11:07:16;;;;;;;10.20;2.60;;;16.70;99.90;;;;;;4113477;28;20078;-76
2021/10/15 11:09:44;;;;;;;4.22;1.83;;;17.00;99.90;;;;;;4119235;28;20049;-77
2021/10/15 11:11:45;;;;;;;5.93;2.70;;;18.20;99.90;;;;;;4109122;28;20034;-78
2021/10/15 11:13:46;;;;;;;5.78;2.63;;;18.90;99.90;;;;;;4126201;28;20444;-78
2021/10/15 11:15:47;;;;;;;8.70;2.22;;;19.50;99.90;;;;;;4124730;28;20051;-78
2021/10/15 11:17:48;;;;;;;11.20;2.70;;;20.00;99.90;;;;;;4111534;28;20107;-78
2021/10/15 11:20:13;;;;;;;8.55;3.03;;;19.70;99.90;;;;;;4113643;28;20035;-78
2021/10/15 11:22:21;;;;;;;6.85;2.13;;;19.30;99.90;;;;;;4103886;28;20066;-77
2021/10/15 11:24:22;;;;;;;8.30;2.92;;;19.10;99.90;;;;;;4110844;28;20134;-77
2021/10/15 11:26:34;;;;;;;5.60;2.20;;;19.30;99.90;;;;;;4113384;28;20320;-77
2021/10/15 11:28:35;;;;;;;7.35;2.67;;;20.10;99.90;;;;;;4112676;28;20030;-76
2021/10/15 11:30:43;;;;;;;6.57;2.40;;;19.70;99.90;;;;;;4111931;28;20031;-77
2021/10/15 11:32:47;;;;;;;6.07;2.30;;;18.60;99.90;;;;;;4128686;28;20022;-78
2021/10/15 11:35:18;;;;;;;9.35;2.72;;;17.50;99.90;;;;;;4112839;28;20038;-76
2021/10/15 11:37:18;;;;;;;6.18;2.58;;;16.40;99.90;;;;;;4110871;28;20121;-75